createdAt,value
2018-11-29T00:04:32.118Z,88.50
2018-11-29T00:10:35.602Z,90.50
2018-11-29T00:16:39.030Z,88.50
2018-11-29T00:22:43.082Z,88.00
2018-11-29T00:28:46.547Z,90.20
2018-11-29T00:34:50.000Z,90.50
2018-11-29T00:40:53.516Z,91.90
2018-11-29T00:46:56.946Z,89.70
2018-11-29T00:53:00.371Z,91.30
2018-11-29T00:59:03.860Z,91.40
2018-11-29T01:05:07.368Z,91.40
2018-11-29T01:11:10.816Z,90.70
2018-11-29T01:17:14.276Z,91.80
2018-11-29T01:23:17.717Z,91.60
2018-11-29T01:29:21.181Z,90.90
2018-11-29T01:35:24.659Z,90.70
2018-11-29T01:41:28.126Z,91.10
2018-11-29T01:47:31.565Z,91.20
2018-11-29T01:53:35.042Z,91.40
2018-11-29T01:59:38.528Z,90.70
2018-11-29T02:05:41.962Z,91.90
2018-11-29T02:11:45.398Z,91.10
2018-11-29T02:17:48.874Z,91.10
2018-11-29T02:23:52.323Z,90.30
2018-11-29T02:29:55.874Z,93.50
2018-11-29T02:35:59.315Z,91.90
2018-11-29T02:42:02.758Z,92.40
2018-11-29T02:48:06.602Z,92.60
2018-11-29T02:54:10.062Z,91.10
2018-11-29T03:00:17.972Z,91.50
2018-11-29T03:06:21.433Z,91.90
2018-11-29T03:12:24.951Z,89.70
2018-11-29T03:18:28.386Z,91.00
2018-11-29T03:24:31.859Z,88.70
2018-11-29T03:30:35.348Z,93.20
2018-11-29T03:36:38.807Z,92.00
2018-11-29T03:42:42.359Z,91.80
2018-11-29T03:48:45.924Z,91.20
2018-11-29T03:54:50.151Z,94.30
2018-11-29T04:00:53.650Z,90.70
2018-11-29T04:06:57.711Z,91.30
2018-11-29T04:13:01.137Z,92.50
2018-11-29T04:19:05.359Z,90.80
2018-11-29T04:25:10.113Z,93.20
2018-11-29T04:31:13.567Z,92.00
2018-11-29T04:37:17.031Z,91.00
2018-11-29T04:43:20.474Z,92.10
2018-11-29T04:49:23.969Z,90.10
2018-11-29T04:55:28.062Z,91.50
2018-11-29T05:01:31.499Z,90.70
2018-11-29T05:07:35.018Z,89.60
2018-11-29T05:13:38.415Z,87.30
2018-11-29T05:19:41.893Z,94.20
2018-11-29T05:25:45.326Z,94.70
2018-11-29T05:31:48.784Z,93.40
2018-11-29T05:37:52.251Z,91.20
2018-11-29T05:43:55.720Z,93.00
2018-11-29T05:49:59.159Z,93.00
2018-11-29T05:56:02.630Z,91.60
2018-11-29T06:02:06.166Z,93.10
2018-11-29T06:08:09.601Z,91.90
2018-11-29T06:14:13.089Z,92.90
2018-11-29T06:20:17.557Z,96.30
2018-11-29T06:26:21.017Z,93.80
2018-11-29T06:32:24.471Z,93.90
2018-11-29T06:38:27.942Z,86.40
2018-11-29T06:44:31.403Z,88.80
2018-11-29T06:50:34.849Z,92.90
2018-11-29T06:56:38.343Z,93.60
2018-11-29T07:02:41.777Z,94.00
2018-11-29T07:08:45.535Z,94.60
2018-11-29T07:14:48.989Z,92.80
2018-11-29T07:21:03.581Z,93.10
2018-11-29T07:27:07.077Z,93.50
2018-11-29T07:33:10.533Z,92.60
2018-11-29T07:39:13.977Z,93.00
2018-11-29T07:45:18.429Z,93.10
2018-11-29T07:51:21.881Z,93.30
2018-11-29T07:57:25.310Z,92.30
2018-11-29T08:03:28.750Z,93.40
2018-11-29T08:09:32.165Z,93.40
2018-11-29T08:15:35.638Z,94.20
2018-11-29T08:21:39.104Z,96.30
2018-11-29T08:27:42.530Z,94.20
2018-11-29T08:33:45.982Z,95.30
2018-11-29T08:39:49.569Z,96.10
2018-11-29T08:45:53.091Z,97.50
2018-11-29T08:51:56.520Z,96.60
2018-11-29T08:57:59.977Z,99.10
2018-11-29T09:04:03.404Z,99.60
2018-11-29T09:10:09.008Z,99.70
2018-11-29T09:16:12.528Z,99.60
2018-11-29T09:22:15.892Z,98.40
2018-11-29T09:28:19.614Z,99.00
2018-11-29T09:34:23.100Z,97.60
2018-11-29T09:40:26.561Z,97.60
2018-11-29T09:46:30.022Z,97.40
2018-11-29T09:52:33.494Z,94.90
2018-11-29T09:58:36.894Z,96.80
2018-11-29T10:04:40.340Z,96.40
2018-11-29T10:10:43.796Z,96.30
2018-11-29T10:16:47.290Z,96.10
2018-11-29T10:22:50.757Z,94.60
2018-11-29T10:28:54.262Z,95.20
2018-11-29T10:34:57.683Z,94.70
2018-11-29T10:41:01.120Z,94.00
2018-11-29T10:47:04.615Z,94.10
2018-11-29T10:53:08.895Z,94.10
